sensor_id;sensor_type;location;lat;lon;timestamp;P1;durP1;ratioP1;P2;durP2;ratioP2
19285;SDS011;9776;50.798;6.430;2023-07-31T00:01:03;4.00;;;1.92;;
19285;SDS011;9776;50.798;6.430;2023-07-31T00:03:30;4.82;;;1.70;;
19285;SDS011;9776;50.798;6.430;2023-07-31T00:05:57;3.63;;;1.73;;
19285;SDS011;9776;50.798;6.430;2023-07-31T00:08:24;4.72;;;1.80;;
19285;SDS011;9776;50.798;6.430;2023-07-31T00:10:52;3.72;;;1.70;;
19285;SDS011;9776;50.798;6.430;2023-07-31T00:13:19;4.85;;;1.80;;
19285;SDS011;9776;50.798;6.430;2023-07-31T00:15:45;3.15;;;1.45;;
19285;SDS011;9776;50.798;6.430;2023-07-31T00:18:12;3.63;;;1.63;;
19285;SDS011;9776;50.798;6.430;2023-07-31T00:20:39;4.20;;;1.80;;
19285;SDS011;9776;50.798;6.430;2023-07-31T00:23:06;4.35;;;1.83;;
19285;SDS011;9776;50.798;6.430;2023-07-31T00:25:33;6.22;;;1.85;;
19285;SDS011;9776;50.798;6.430;2023-07-31T00:28:01;7.57;;;2.03;;
19285;SDS011;9776;50.798;6.430;2023-07-31T00:30:27;3.75;;;1.98;;
19285;SDS011;9776;50.798;6.430;2023-07-31T00:32:54;4.03;;;1.52;;
19285;SDS011;9776;50.798;6.430;2023-07-31T00:35:21;3.50;;;1.60;;
19285;SDS011;9776;50.798;6.430;2023-07-31T00:37:48;3.75;;;1.70;;
19285;SDS011;9776;50.798;6.430;2023-07-31T00:40:14;3.13;;;1.67;;
19285;SDS011;9776;50.798;6.430;2023-07-31T00:42:41;4.10;;;1.80;;
19285;SDS011;9776;50.798;6.430;2023-07-31T00:45:09;4.22;;;2.00;;
19285;SDS011;9776;50.798;6.430;2023-07-31T00:47:36;4.22;;;1.92;;
19285;SDS011;9776;50.798;6.430;2023-07-31T00:50:03;4.93;;;2.00;;
19285;SDS011;9776;50.798;6.430;2023-07-31T00:52:32;3.00;;;1.90;;
19285;SDS011;9776;50.798;6.430;2023-07-31T00:54:58;5.05;;;2.03;;
19285;SDS011;9776;50.798;6.430;2023-07-31T00:57:26;3.13;;;1.75;;
19285;SDS011;9776;50.798;6.430;2023-07-31T00:59:52;4.43;;;1.55;;
19285;SDS011;9776;50.798;6.430;2023-07-31T01:02:21;2.45;;;1.58;;
19285;SDS011;9776;50.798;6.430;2023-07-31T01:04:47;3.63;;;1.58;;
19285;SDS011;9776;50.798;6.430;2023-07-31T01:07:17;3.50;;;1.63;;
19285;SDS011;9776;50.798;6.430;2023-07-31T01:09:57;4.45;;;1.60;;
19285;SDS011;9776;50.798;6.430;2023-07-31T01:12:29;3.65;;;1.80;;
19285;SDS011;9776;50.798;6.430;2023-07-31T01:15:04;3.25;;;1.80;;
19285;SDS011;9776;50.798;6.430;2023-07-31T01:17:33;4.97;;;1.98;;
19285;SDS011;9776;50.798;6.430;2023-07-31T01:20:01;5.10;;;2.10;;
19285;SDS011;9776;50.798;6.430;2023-07-31T01:22:43;5.20;;;1.90;;
19285;SDS011;9776;50.798;6.430;2023-07-31T01:25:29;4.65;;;1.98;;
19285;SDS011;9776;50.798;6.430;2023-07-31T01:28:09;3.65;;;1.73;;
19285;SDS011;9776;50.798;6.430;2023-07-31T01:30:40;5.80;;;1.83;;
19285;SDS011;9776;50.798;6.430;2023-07-31T01:33:11;4.60;;;1.60;;
19285;SDS011;9776;50.798;6.430;2023-07-31T01:35:38;3.30;;;1.65;;
19285;SDS011;9776;50.798;6.430;2023-07-31T01:38:06;4.55;;;1.92;;
19285;SDS011;9776;50.798;6.430;2023-07-31T01:40:32;7.15;;;2.20;;
19285;SDS011;9776;50.798;6.430;2023-07-31T01:42:59;3.05;;;1.67;;
19285;SDS011;9776;50.798;6.430;2023-07-31T01:45:27;3.90;;;1.80;;
19285;SDS011;9776;50.798;6.430;2023-07-31T01:47:54;4.30;;;1.92;;
19285;SDS011;9776;50.798;6.430;2023-07-31T01:50:20;7.70;;;2.20;;
19285;SDS011;9776;50.798;6.430;2023-07-31T01:52:47;8.27;;;1.88;;
19285;SDS011;9776;50.798;6.430;2023-07-31T01:55:14;5.47;;;1.92;;
19285;SDS011;9776;50.798;6.430;2023-07-31T01:57:41;3.70;;;1.98;;
19285;SDS011;9776;50.798;6.430;2023-07-31T02:00:08;5.07;;;1.85;;
19285;SDS011;9776;50.798;6.430;2023-07-31T02:02:36;3.55;;;1.80;;
19285;SDS011;9776;50.798;6.430;2023-07-31T02:05:03;4.25;;;2.10;;
19285;SDS011;9776;50.798;6.430;2023-07-31T02:07:30;4.07;;;1.80;;
19285;SDS011;9776;50.798;6.430;2023-07-31T02:09:57;3.33;;;1.67;;
19285;SDS011;9776;50.798;6.430;2023-07-31T02:12:23;5.82;;;2.08;;
19285;SDS011;9776;50.798;6.430;2023-07-31T02:14:50;5.85;;;2.10;;
19285;SDS011;9776;50.798;6.430;2023-07-31T02:17:17;3.83;;;1.70;;
19285;SDS011;9776;50.798;6.430;2023-07-31T02:19:45;6.28;;;2.47;;
19285;SDS011;9776;50.798;6.430;2023-07-31T02:22:12;7.18;;;1.88;;
19285;SDS011;9776;50.798;6.430;2023-07-31T02:24:38;5.22;;;2.53;;
19285;SDS011;9776;50.798;6.430;2023-07-31T02:27:05;4.28;;;1.80;;
19285;SDS011;9776;50.798;6.430;2023-07-31T02:29:32;6.40;;;1.92;;
19285;SDS011;9776;50.798;6.430;2023-07-31T02:31:59;6.63;;;2.20;;
19285;SDS011;9776;50.798;6.430;2023-07-31T02:34:26;5.43;;;2.30;;
19285;SDS011;9776;50.798;6.430;2023-07-31T02:36:54;3.63;;;2.13;;
19285;SDS011;9776;50.798;6.430;2023-07-31T02:39:20;8.20;;;2.40;;
19285;SDS011;9776;50.798;6.430;2023-07-31T02:41:47;4.68;;;2.00;;
19285;SDS011;9776;50.798;6.430;2023-07-31T02:44:14;5.03;;;1.92;;
19285;SDS011;9776;50.798;6.430;2023-07-31T02:46:41;4.65;;;1.75;;
19285;SDS011;9776;50.798;6.430;2023-07-31T02:49:07;4.45;;;2.28;;
19285;SDS011;9776;50.798;6.430;2023-07-31T02:51:34;6.45;;;2.08;;
19285;SDS011;9776;50.798;6.430;2023-07-31T02:54:02;5.32;;;2.10;;
19285;SDS011;9776;50.798;6.430;2023-07-31T02:56:29;4.78;;;2.25;;
19285;SDS011;9776;50.798;6.430;2023-07-31T02:58:55;4.47;;;2.00;;
19285;SDS011;9776;50.798;6.430;2023-07-31T03:01:22;5.30;;;2.22;;
19285;SDS011;9776;50.798;6.430;2023-07-31T03:03:49;4.35;;;2.20;;
19285;SDS011;9776;50.798;6.430;2023-07-31T03:06:16;5.65;;;2.30;;
19285;SDS011;9776;50.798;6.430;2023-07-31T03:08:42;5.38;;;2.40;;
19285;SDS011;9776;50.798;6.430;2023-07-31T03:11:10;4.50;;;2.10;;
19285;SDS011;9776;50.798;6.430;2023-07-31T03:13:37;6.57;;;2.70;;
19285;SDS011;9776;50.798;6.430;2023-07-31T03:16:04;5.82;;;2.47;;
19285;SDS011;9776;50.798;6.430;2023-07-31T03:18:30;6.07;;;2.28;;
19285;SDS011;9776;50.798;6.430;2023-07-31T03:20:57;4.85;;;2.33;;
19285;SDS011;9776;50.798;6.430;2023-07-31T03:23:24;5.63;;;2.70;;
19285;SDS011;9776;50.798;6.430;2023-07-31T03:25:57;4.05;;;2.30;;
19285;SDS011;9776;50.798;6.430;2023-07-31T03:28:26;5.65;;;2.30;;
19285;SDS011;9776;50.798;6.430;2023-07-31T03:30:53;5.45;;;2.42;;
19285;SDS011;9776;50.798;6.430;2023-07-31T03:33:19;5.28;;;2.53;;
19285;SDS011;9776;50.798;6.430;2023-07-31T03:35:46;4.07;;;2.00;;
19285;SDS011;9776;50.798;6.430;2023-07-31T03:38:13;5.00;;;2.60;;
19285;SDS011;9776;50.798;6.430;2023-07-31T03:40:40;4.60;;;2.30;;
19285;SDS011;9776;50.798;6.430;2023-07-31T03:43:06;6.90;;;2.45;;
19285;SDS011;9776;50.798;6.430;2023-07-31T03:45:35;4.57;;;2.63;;
19285;SDS011;9776;50.798;6.430;2023-07-31T03:48:01;6.35;;;2.70;;
19285;SDS011;9776;50.798;6.430;2023-07-31T03:50:29;5.13;;;2.30;;
19285;SDS011;9776;50.798;6.430;2023-07-31T03:52:56;5.00;;;2.63;;
19285;SDS011;9776;50.798;6.430;2023-07-31T03:55:23;6.13;;;2.70;;
19285;SDS011;9776;50.798;6.430;2023-07-31T03:57:49;5.55;;;2.30;;
19285;SDS011;9776;50.798;6.430;2023-07-31T04:00:16;5.38;;;2.33;;
19285;SDS011;9776;50.798;6.430;2023-07-31T04:02:44;4.97;;;2.30;;
19285;SDS011;9776;50.798;6.430;2023-07-31T04:05:11;4.35;;;2.20;;
19285;SDS011;9776;50.798;6.430;2023-07-31T04:07:37;4.30;;;2.25;;
19285;SDS011;9776;50.798;6.430;2023-07-31T04:10:04;4.72;;;2.40;;
19285;SDS011;9776;50.798;6.430;2023-07-31T04:12:31;4.60;;;2.33;;
19285;SDS011;9776;50.798;6.430;2023-07-31T04:14:58;5.43;;;2.20;;
19285;SDS011;9776;50.798;6.430;2023-07-31T04:17:25;5.15;;;2.47;;
19285;SDS011;9776;50.798;6.430;2023-07-31T04:19:53;6.15;;;2.80;;
19285;SDS011;9776;50.798;6.430;2023-07-31T04:22:20;5.57;;;2.10;;
19285;SDS011;9776;50.798;6.430;2023-07-31T04:24:46;6.88;;;2.40;;
19285;SDS011;9776;50.798;6.430;2023-07-31T04:27:13;4.00;;;2.55;;
19285;SDS011;9776;50.798;6.430;2023-07-31T04:29:40;4.55;;;2.10;;
19285;SDS011;9776;50.798;6.430;2023-07-31T04:32:07;4.90;;;1.98;;
19285;SDS011;9776;50.798;6.430;2023-07-31T04:34:34;7.47;;;2.28;;
19285;SDS011;9776;50.798;6.430;2023-07-31T04:37:02;4.90;;;2.25;;
19285;SDS011;9776;50.798;6.430;2023-07-31T04:39:29;3.22;;;1.90;;
19285;SDS011;9776;50.798;6.430;2023-07-31T04:41:56;4.90;;;2.38;;
19285;SDS011;9776;50.798;6.430;2023-07-31T04:44:23;4.55;;;2.33;;
19285;SDS011;9776;50.798;6.430;2023-07-31T04:46:51;5.78;;;2.25;;
19285;SDS011;9776;50.798;6.430;2023-07-31T04:49:17;3.42;;;2.08;;
19285;SDS011;9776;50.798;6.430;2023-07-31T04:51:44;4.32;;;2.45;;
19285;SDS011;9776;50.798;6.430;2023-07-31T04:54:12;4.55;;;2.22;;
19285;SDS011;9776;50.798;6.430;2023-07-31T04:56:40;4.35;;;1.90;;
19285;SDS011;9776;50.798;6.430;2023-07-31T04:59:07;4.10;;;2.40;;
19285;SDS011;9776;50.798;6.430;2023-07-31T05:01:33;4.40;;;2.13;;
19285;SDS011;9776;50.798;6.430;2023-07-31T05:04:00;4.18;;;2.17;;
19285;SDS011;9776;50.798;6.430;2023-07-31T05:06:27;5.75;;;2.45;;
19285;SDS011;9776;50.798;6.430;2023-07-31T05:08:54;4.80;;;2.00;;
19285;SDS011;9776;50.798;6.430;2023-07-31T05:11:22;3.45;;;2.03;;
19285;SDS011;9776;50.798;6.430;2023-07-31T05:13:48;4.68;;;2.10;;
19285;SDS011;9776;50.798;6.430;2023-07-31T05:16:15;3.65;;;1.90;;
19285;SDS011;9776;50.798;6.430;2023-07-31T05:18:42;4.13;;;2.05;;
19285;SDS011;9776;50.798;6.430;2023-07-31T05:21:09;4.20;;;1.98;;
19285;SDS011;9776;50.798;6.430;2023-07-31T05:23:35;4.95;;;1.90;;
19285;SDS011;9776;50.798;6.430;2023-07-31T05:26:03;4.85;;;2.25;;
19285;SDS011;9776;50.798;6.430;2023-07-31T05:28:31;4.28;;;2.25;;
19285;SDS011;9776;50.798;6.430;2023-07-31T05:30:59;3.75;;;1.95;;
19285;SDS011;9776;50.798;6.430;2023-07-31T05:33:26;4.78;;;2.00;;
19285;SDS011;9776;50.798;6.430;2023-07-31T05:35:53;3.83;;;2.13;;
19285;SDS011;9776;50.798;6.430;2023-07-31T05:38:20;4.13;;;1.90;;
19285;SDS011;9776;50.798;6.430;2023-07-31T05:40:47;3.55;;;1.95;;
19285;SDS011;9776;50.798;6.430;2023-07-31T05:43:14;4.60;;;2.10;;
19285;SDS011;9776;50.798;6.430;2023-07-31T05:45:42;3.58;;;2.22;;
19285;SDS011;9776;50.798;6.430;2023-07-31T05:48:09;4.88;;;2.10;;
19285;SDS011;9776;50.798;6.430;2023-07-31T05:50:36;5.05;;;1.83;;
19285;SDS011;9776;50.798;6.430;2023-07-31T05:53:04;4.22;;;2.20;;
19285;SDS011;9776;50.798;6.430;2023-07-31T05:55:31;3.47;;;1.98;;
19285;SDS011;9776;50.798;6.430;2023-07-31T05:57:58;3.17;;;2.10;;
19285;SDS011;9776;50.798;6.430;2023-07-31T06:00:24;4.47;;;2.35;;
19285;SDS011;9776;50.798;6.430;2023-07-31T06:02:54;5.57;;;2.40;;
19285;SDS011;9776;50.798;6.430;2023-07-31T06:05:20;3.35;;;1.90;;
19285;SDS011;9776;50.798;6.430;2023-07-31T06:07:47;3.95;;;1.88;;
19285;SDS011;9776;50.798;6.430;2023-07-31T06:10:14;3.67;;;2.20;;
19285;SDS011;9776;50.798;6.430;2023-07-31T06:12:41;4.28;;;2.10;;
19285;SDS011;9776;50.798;6.430;2023-07-31T06:15:07;4.63;;;2.25;;
19285;SDS011;9776;50.798;6.430;2023-07-31T06:17:36;4.60;;;2.20;;
19285;SDS011;9776;50.798;6.430;2023-07-31T06:20:05;5.55;;;1.95;;
19285;SDS011;9776;50.798;6.430;2023-07-31T06:22:33;3.85;;;1.73;;
19285;SDS011;9776;50.798;6.430;2023-07-31T06:24:59;6.38;;;2.22;;
19285;SDS011;9776;50.798;6.430;2023-07-31T06:27:26;4.95;;;2.05;;
19285;SDS011;9776;50.798;6.430;2023-07-31T06:29:53;4.43;;;2.30;;
19285;SDS011;9776;50.798;6.430;2023-07-31T06:32:20;3.50;;;1.95;;
19285;SDS011;9776;50.798;6.430;2023-07-31T06:34:47;4.50;;;2.13;;
19285;SDS011;9776;50.798;6.430;2023-07-31T06:37:15;3.50;;;1.83;;
19285;SDS011;9776;50.798;6.430;2023-07-31T06:39:42;4.28;;;1.80;;
19285;SDS011;9776;50.798;6.430;2023-07-31T06:42:08;3.63;;;1.80;;
19285;SDS011;9776;50.798;6.430;2023-07-31T06:44:35;2.75;;;1.33;;
19285;SDS011;9776;50.798;6.430;2023-07-31T06:47:02;3.53;;;2.03;;
19285;SDS011;9776;50.798;6.430;2023-07-31T06:49:29;5.25;;;2.00;;
19285;SDS011;9776;50.798;6.430;2023-07-31T06:51:55;5.43;;;2.13;;
19285;SDS011;9776;50.798;6.430;2023-07-31T06:54:23;4.10;;;1.90;;
19285;SDS011;9776;50.798;6.430;2023-07-31T06:56:50;4.32;;;2.20;;
19285;SDS011;9776;50.798;6.430;2023-07-31T06:59:17;5.13;;;1.83;;
19285;SDS011;9776;50.798;6.430;2023-07-31T07:01:43;6.07;;;1.67;;
19285;SDS011;9776;50.798;6.430;2023-07-31T07:04:10;2.88;;;1.60;;
19285;SDS011;9776;50.798;6.430;2023-07-31T07:06:37;4.88;;;1.63;;
19285;SDS011;9776;50.798;6.430;2023-07-31T07:09:04;3.15;;;1.98;;
19285;SDS011;9776;50.798;6.430;2023-07-31T07:11:32;5.25;;;2.08;;
19285;SDS011;9776;50.798;6.430;2023-07-31T07:13:59;7.43;;;2.00;;
19285;SDS011;9776;50.798;6.430;2023-07-31T07:16:26;3.17;;;1.70;;
19285;SDS011;9776;50.798;6.430;2023-07-31T07:18:54;3.80;;;1.70;;
19285;SDS011;9776;50.798;6.430;2023-07-31T07:21:21;3.60;;;1.80;;
19285;SDS011;9776;50.798;6.430;2023-07-31T07:23:47;4.13;;;1.95;;
19285;SDS011;9776;50.798;6.430;2023-07-31T07:26:14;3.53;;;1.70;;
19285;SDS011;9776;50.798;6.430;2023-07-31T07:28:42;4.65;;;2.10;;
19285;SDS011;9776;50.798;6.430;2023-07-31T07:31:09;4.45;;;1.83;;
19285;SDS011;9776;50.798;6.430;2023-07-31T07:33:35;3.50;;;1.75;;
19285;SDS011;9776;50.798;6.430;2023-07-31T07:36:02;4.38;;;1.70;;
19285;SDS011;9776;50.798;6.430;2023-07-31T07:38:30;3.85;;;1.45;;
19285;SDS011;9776;50.798;6.430;2023-07-31T07:40:57;3.88;;;1.45;;
19285;SDS011;9776;50.798;6.430;2023-07-31T07:43:24;4.95;;;1.85;;
19285;SDS011;9776;50.798;6.430;2023-07-31T07:45:56;4.90;;;1.80;;
19285;SDS011;9776;50.798;6.430;2023-07-31T07:48:23;2.85;;;1.58;;
19285;SDS011;9776;50.798;6.430;2023-07-31T07:50:50;3.30;;;1.50;;
19285;SDS011;9776;50.798;6.430;2023-07-31T07:53:16;2.55;;;1.52;;
19285;SDS011;9776;50.798;6.430;2023-07-31T07:55:43;4.68;;;1.73;;
19285;SDS011;9776;50.798;6.430;2023-07-31T07:58:10;3.17;;;1.30;;
19285;SDS011;9776;50.798;6.430;2023-07-31T08:00:37;3.72;;;1.23;;
19285;SDS011;9776;50.798;6.430;2023-07-31T08:03:05;3.72;;;1.40;;
19285;SDS011;9776;50.798;6.430;2023-07-31T08:05:32;2.40;;;1.23;;
19285;SDS011;9776;50.798;6.430;2023-07-31T08:08:00;4.38;;;1.35;;
19285;SDS011;9776;50.798;6.430;2023-07-31T08:10:26;1.80;;;1.30;;
19285;SDS011;9776;50.798;6.430;2023-07-31T08:12:53;3.05;;;1.30;;
19285;SDS011;9776;50.798;6.430;2023-07-31T08:15:20;3.50;;;1.40;;
19285;SDS011;9776;50.798;6.430;2023-07-31T08:17:46;3.05;;;1.50;;
19285;SDS011;9776;50.798;6.430;2023-07-31T08:20:15;4.25;;;1.55;;
19285;SDS011;9776;50.798;6.430;2023-07-31T08:22:41;2.15;;;1.30;;
19285;SDS011;9776;50.798;6.430;2023-07-31T08:25:08;2.80;;;1.50;;
19285;SDS011;9776;50.798;6.430;2023-07-31T08:27:35;2.95;;;1.30;;
19285;SDS011;9776;50.798;6.430;2023-07-31T08:30:02;3.38;;;1.33;;
19285;SDS011;9776;50.798;6.430;2023-07-31T08:32:29;2.75;;;1.20;;
19285;SDS011;9776;50.798;6.430;2023-07-31T08:34:56;4.90;;;1.40;;
19285;SDS011;9776;50.798;6.430;2023-07-31T08:37:24;1.77;;;1.23;;
19285;SDS011;9776;50.798;6.430;2023-07-31T08:39:51;3.22;;;1.40;;
19285;SDS011;9776;50.798;6.430;2023-07-31T08:42:18;1.98;;;1.30;;
19285;SDS011;9776;50.798;6.430;2023-07-31T08:44:45;2.72;;;1.05;;
19285;SDS011;9776;50.798;6.430;2023-07-31T08:47:13;2.47;;;1.25;;
19285;SDS011;9776;50.798;6.430;2023-07-31T08:49:40;2.20;;;1.13;;
19285;SDS011;9776;50.798;6.430;2023-07-31T08:52:08;2.83;;;1.02;;
19285;SDS011;9776;50.798;6.430;2023-07-31T08:54:37;1.98;;;1.23;;
19285;SDS011;9776;50.798;6.430;2023-07-31T08:57:05;2.80;;;1.25;;
19285;SDS011;9776;50.798;6.430;2023-07-31T08:59:34;4.10;;;1.30;;
19285;SDS011;9776;50.798;6.430;2023-07-31T09:02:03;3.50;;;1.20;;
19285;SDS011;9776;50.798;6.430;2023-07-31T09:04:32;3.15;;;1.45;;
19285;SDS011;9776;50.798;6.430;2023-07-31T09:06:59;3.47;;;1.20;;
19285;SDS011;9776;50.798;6.430;2023-07-31T09:09:28;3.13;;;1.42;;
19285;SDS011;9776;50.798;6.430;2023-07-31T09:11:56;2.30;;;1.35;;
19285;SDS011;9776;50.798;6.430;2023-07-31T09:14:24;3.88;;;1.23;;
19285;SDS011;9776;50.798;6.430;2023-07-31T09:16:51;2.92;;;1.20;;
19285;SDS011;9776;50.798;6.430;2023-07-31T09:19:24;3.08;;;1.27;;
19285;SDS011;9776;50.798;6.430;2023-07-31T09:21:52;3.28;;;1.20;;
19285;SDS011;9776;50.798;6.430;2023-07-31T09:24:24;4.78;;;1.40;;
19285;SDS011;9776;50.798;6.430;2023-07-31T09:26:53;2.63;;;1.30;;
19285;SDS011;9776;50.798;6.430;2023-07-31T09:29:22;2.17;;;1.02;;
19285;SDS011;9776;50.798;6.430;2023-07-31T09:31:49;3.28;;;1.30;;
19285;SDS011;9776;50.798;6.430;2023-07-31T09:34:16;3.85;;;1.25;;
19285;SDS011;9776;50.798;6.430;2023-07-31T09:36:44;4.15;;;1.58;;
19285;SDS011;9776;50.798;6.430;2023-07-31T09:39:12;4.30;;;1.35;;
19285;SDS011;9776;50.798;6.430;2023-07-31T09:41:42;1.75;;;1.20;;
19285;SDS011;9776;50.798;6.430;2023-07-31T09:44:10;3.83;;;1.30;;
19285;SDS011;9776;50.798;6.430;2023-07-31T09:46:38;2.03;;;1.20;;
19285;SDS011;9776;50.798;6.430;2023-07-31T09:49:06;3.15;;;1.15;;
19285;SDS011;9776;50.798;6.430;2023-07-31T09:51:34;2.25;;;1.30;;
19285;SDS011;9776;50.798;6.430;2023-07-31T09:54:03;3.90;;;1.35;;
19285;SDS011;9776;50.798;6.430;2023-07-31T09:56:36;2.63;;;1.10;;
19285;SDS011;9776;50.798;6.430;2023-07-31T09:59:03;3.03;;;1.25;;
19285;SDS011;9776;50.798;6.430;2023-07-31T10:01:31;3.83;;;1.08;;
19285;SDS011;9776;50.798;6.430;2023-07-31T10:04:00;2.42;;;1.20;;
19285;SDS011;9776;50.798;6.430;2023-07-31T10:06:28;2.50;;;1.08;;
19285;SDS011;9776;50.798;6.430;2023-07-31T10:08:55;3.35;;;1.48;;
19285;SDS011;9776;50.798;6.430;2023-07-31T10:11:22;1.95;;;1.00;;
19285;SDS011;9776;50.798;6.430;2023-07-31T10:13:53;1.75;;;0.90;;
19285;SDS011;9776;50.798;6.430;2023-07-31T10:16:21;2.38;;;0.80;;
19285;SDS011;9776;50.798;6.430;2023-07-31T10:18:49;2.78;;;0.80;;
19285;SDS011;9776;50.798;6.430;2023-07-31T10:21:18;3.80;;;0.80;;
19285;SDS011;9776;50.798;6.430;2023-07-31T10:23:45;1.50;;;0.80;;
19285;SDS011;9776;50.798;6.430;2023-07-31T10:26:14;1.58;;;0.65;;
19285;SDS011;9776;50.798;6.430;2023-07-31T10:28:41;2.05;;;0.55;;
19285;SDS011;9776;50.798;6.430;2023-07-31T10:31:10;2.55;;;0.73;;
19285;SDS011;9776;50.798;6.430;2023-07-31T10:33:37;0.77;;;0.50;;
19285;SDS011;9776;50.798;6.430;2023-07-31T10:36:14;1.55;;;0.65;;
19285;SDS011;9776;50.798;6.430;2023-07-31T10:38:44;1.85;;;0.70;;
19285;SDS011;9776;50.798;6.430;2023-07-31T10:41:11;1.27;;;0.52;;
19285;SDS011;9776;50.798;6.430;2023-07-31T10:43:37;1.17;;;0.60;;
19285;SDS011;9776;50.798;6.430;2023-07-31T10:46:07;1.42;;;0.60;;
19285;SDS011;9776;50.798;6.430;2023-07-31T10:48:34;1.52;;;0.43;;
19285;SDS011;9776;50.798;6.430;2023-07-31T10:51:02;1.00;;;0.50;;
19285;SDS011;9776;50.798;6.430;2023-07-31T10:53:33;2.40;;;0.60;;
19285;SDS011;9776;50.798;6.430;2023-07-31T10:56:02;1.25;;;0.60;;
19285;SDS011;9776;50.798;6.430;2023-07-31T10:58:29;1.50;;;0.77;;
19285;SDS011;9776;50.798;6.430;2023-07-31T11:00:58;0.70;;;0.50;;
19285;SDS011;9776;50.798;6.430;2023-07-31T11:03:26;2.75;;;0.40;;
19285;SDS011;9776;50.798;6.430;2023-07-31T11:05:59;1.77;;;0.45;;
19285;SDS011;9776;50.798;6.430;2023-07-31T11:08:28;1.20;;;0.40;;
19285;SDS011;9776;50.798;6.430;2023-07-31T11:11:07;1.08;;;0.40;;
19285;SDS011;9776;50.798;6.430;2023-07-31T11:13:39;2.97;;;0.40;;
19285;SDS011;9776;50.798;6.430;2023-07-31T11:16:08;1.15;;;0.43;;
19285;SDS011;9776;50.798;6.430;2023-07-31T11:18:35;1.38;;;0.43;;
19285;SDS011;9776;50.798;6.430;2023-07-31T11:21:04;0.70;;;0.40;;
19285;SDS011;9776;50.798;6.430;2023-07-31T11:23:31;1.33;;;0.40;;
19285;SDS011;9776;50.798;6.430;2023-07-31T11:25:58;0.40;;;0.20;;
19285;SDS011;9776;50.798;6.430;2023-07-31T11:28:30;0.70;;;0.40;;
19285;SDS011;9776;50.798;6.430;2023-07-31T11:30:58;0.88;;;0.40;;
19285;SDS011;9776;50.798;6.430;2023-07-31T11:33:26;1.00;;;0.35;;
19285;SDS011;9776;50.798;6.430;2023-07-31T11:35:52;0.55;;;0.22;;
19285;SDS011;9776;50.798;6.430;2023-07-31T11:38:22;1.02;;;0.50;;
19285;SDS011;9776;50.798;6.430;2023-07-31T11:40:51;1.00;;;0.50;;
19285;SDS011;9776;50.798;6.430;2023-07-31T11:43:18;1.73;;;0.47;;
19285;SDS011;9776;50.798;6.430;2023-07-31T11:45:48;1.38;;;0.40;;
19285;SDS011;9776;50.798;6.430;2023-07-31T11:48:19;1.00;;;0.60;;
19285;SDS011;9776;50.798;6.430;2023-07-31T11:50:47;1.05;;;0.50;;
19285;SDS011;9776;50.798;6.430;2023-07-31T11:53:15;1.20;;;0.70;;
19285;SDS011;9776;50.798;6.430;2023-07-31T11:55:45;1.02;;;0.68;;
19285;SDS011;9776;50.798;6.430;2023-07-31T11:58:12;1.08;;;0.70;;
19285;SDS011;9776;50.798;6.430;2023-07-31T12:00:41;1.30;;;0.60;;
19285;SDS011;9776;50.798;6.430;2023-07-31T12:03:09;1.17;;;0.85;;
19285;SDS011;9776;50.798;6.430;2023-07-31T12:05:36;1.92;;;1.02;;
19285;SDS011;9776;50.798;6.430;2023-07-31T12:08:05;2.35;;;1.20;;
19285;SDS011;9776;50.798;6.430;2023-07-31T12:10:35;1.92;;;0.95;;
19285;SDS011;9776;50.798;6.430;2023-07-31T12:13:03;2.33;;;1.30;;
19285;SDS011;9776;50.798;6.430;2023-07-31T12:15:34;1.77;;;0.90;;
19285;SDS011;9776;50.798;6.430;2023-07-31T12:18:06;3.53;;;1.40;;
19285;SDS011;9776;50.798;6.430;2023-07-31T12:20:39;3.28;;;1.30;;
19285;SDS011;9776;50.798;6.430;2023-07-31T12:23:12;1.90;;;1.02;;
19285;SDS011;9776;50.798;6.430;2023-07-31T12:25:40;3.58;;;1.58;;
19285;SDS011;9776;50.798;6.430;2023-07-31T12:28:07;1.95;;;1.30;;
19285;SDS011;9776;50.798;6.430;2023-07-31T12:30:37;3.13;;;1.00;;
19285;SDS011;9776;50.798;6.430;2023-07-31T12:33:05;2.65;;;1.40;;
19285;SDS011;9776;50.798;6.430;2023-07-31T12:35:38;2.65;;;1.27;;
19285;SDS011;9776;50.798;6.430;2023-07-31T12:38:08;2.20;;;1.20;;
19285;SDS011;9776;50.798;6.430;2023-07-31T12:40:36;2.15;;;1.25;;
19285;SDS011;9776;50.798;6.430;2023-07-31T12:43:03;2.78;;;1.40;;
19285;SDS011;9776;50.798;6.430;2023-07-31T12:45:30;2.80;;;1.30;;
19285;SDS011;9776;50.798;6.430;2023-07-31T12:47:57;1.95;;;1.08;;
19285;SDS011;9776;50.798;6.430;2023-07-31T12:50:24;2.15;;;1.25;;
19285;SDS011;9776;50.798;6.430;2023-07-31T12:52:53;1.63;;;1.05;;
19285;SDS011;9776;50.798;6.430;2023-07-31T12:55:20;2.20;;;1.20;;
19285;SDS011;9776;50.798;6.430;2023-07-31T12:57:47;2.53;;;1.60;;
19285;SDS011;9776;50.798;6.430;2023-07-31T13:00:14;2.00;;;1.45;;
19285;SDS011;9776;50.798;6.430;2023-07-31T13:02:40;2.33;;;1.30;;
19285;SDS011;9776;50.798;6.430;2023-07-31T13:05:07;2.58;;;1.10;;
19285;SDS011;9776;50.798;6.430;2023-07-31T13:07:34;2.67;;;1.20;;
19285;SDS011;9776;50.798;6.430;2023-07-31T13:10:02;4.15;;;1.20;;
19285;SDS011;9776;50.798;6.430;2023-07-31T13:12:29;1.70;;;1.10;;
19285;SDS011;9776;50.798;6.430;2023-07-31T13:14:56;1.83;;;1.17;;
19285;SDS011;9776;50.798;6.430;2023-07-31T13:17:23;1.45;;;0.98;;
19285;SDS011;9776;50.798;6.430;2023-07-31T13:19:49;2.45;;;1.15;;
19285;SDS011;9776;50.798;6.430;2023-07-31T13:22:16;1.95;;;1.00;;
19285;SDS011;9776;50.798;6.430;2023-07-31T13:24:42;2.83;;;1.33;;
19285;SDS011;9776;50.798;6.430;2023-07-31T13:27:11;2.33;;;1.10;;
19285;SDS011;9776;50.798;6.430;2023-07-31T13:29:37;2.25;;;1.27;;
19285;SDS011;9776;50.798;6.430;2023-07-31T13:32:04;2.92;;;1.23;;
19285;SDS011;9776;50.798;6.430;2023-07-31T13:34:31;2.35;;;1.20;;
19285;SDS011;9776;50.798;6.430;2023-07-31T13:36:58;3.20;;;1.40;;
19285;SDS011;9776;50.798;6.430;2023-07-31T13:39:24;2.25;;;1.23;;
19285;SDS011;9776;50.798;6.430;2023-07-31T13:41:51;2.00;;;1.33;;
19285;SDS011;9776;50.798;6.430;2023-07-31T13:44:19;2.60;;;1.48;;
19285;SDS011;9776;50.798;6.430;2023-07-31T13:46:46;3.13;;;1.50;;
19285;SDS011;9776;50.798;6.430;2023-07-31T13:49:12;3.78;;;1.60;;
19285;SDS011;9776;50.798;6.430;2023-07-31T13:51:39;4.20;;;1.50;;
19285;SDS011;9776;50.798;6.430;2023-07-31T13:54:06;4.78;;;2.00;;
19285;SDS011;9776;50.798;6.430;2023-07-31T13:56:32;5.13;;;1.85;;
19285;SDS011;9776;50.798;6.430;2023-07-31T13:58:59;2.80;;;1.90;;
19285;SDS011;9776;50.798;6.430;2023-07-31T14:01:28;4.22;;;1.77;;
19285;SDS011;9776;50.798;6.430;2023-07-31T14:03:54;2.95;;;1.73;;
19285;SDS011;9776;50.798;6.430;2023-07-31T14:06:21;2.80;;;1.90;;
19285;SDS011;9776;50.798;6.430;2023-07-31T14:08:48;2.80;;;1.75;;
19285;SDS011;9776;50.798;6.430;2023-07-31T14:11:14;3.22;;;2.00;;
19285;SDS011;9776;50.798;6.430;2023-07-31T14:13:41;3.38;;;2.00;;
19285;SDS011;9776;50.798;6.430;2023-07-31T14:16:08;3.40;;;2.00;;
19285;SDS011;9776;50.798;6.430;2023-07-31T14:18:36;3.13;;;1.80;;
19285;SDS011;9776;50.798;6.430;2023-07-31T14:21:03;2.67;;;1.95;;
19285;SDS011;9776;50.798;6.430;2023-07-31T14:23:29;3.35;;;1.85;;
19285;SDS011;9776;50.798;6.430;2023-07-31T14:25:56;3.38;;;1.83;;
19285;SDS011;9776;50.798;6.430;2023-07-31T14:28:23;3.83;;;2.08;;
19285;SDS011;9776;50.798;6.430;2023-07-31T14:30:49;3.92;;;1.95;;
19285;SDS011;9776;50.798;6.430;2023-07-31T14:33:16;3.10;;;1.75;;
19285;SDS011;9776;50.798;6.430;2023-07-31T14:35:44;3.58;;;1.90;;
19285;SDS011;9776;50.798;6.430;2023-07-31T14:38:11;3.55;;;1.95;;
19285;SDS011;9776;50.798;6.430;2023-07-31T14:40:38;3.45;;;2.10;;
19285;SDS011;9776;50.798;6.430;2023-07-31T14:43:04;2.92;;;2.00;;
19285;SDS011;9776;50.798;6.430;2023-07-31T14:45:31;4.28;;;2.17;;
19285;SDS011;9776;50.798;6.430;2023-07-31T14:47:58;3.85;;;2.35;;
19285;SDS011;9776;50.798;6.430;2023-07-31T14:50:25;5.45;;;2.20;;
19285;SDS011;9776;50.798;6.430;2023-07-31T14:52:53;3.42;;;2.08;;
19285;SDS011;9776;50.798;6.430;2023-07-31T14:55:20;3.38;;;1.80;;
19285;SDS011;9776;50.798;6.430;2023-07-31T14:57:46;3.28;;;1.85;;
19285;SDS011;9776;50.798;6.430;2023-07-31T15:00:14;3.53;;;1.95;;
19285;SDS011;9776;50.798;6.430;2023-07-31T15:02:41;4.60;;;1.88;;